sensor_id;sensor_type;location;lat;lon;timestamp;P1;durP1;ratioP1;P2;durP2;ratioP2
31438;SDS011;18062;48.872;9.220;2024-03-06T00:00:10;4.87;;;3.07;;
31438;SDS011;18062;48.872;9.220;2024-03-06T00:02:36;4.53;;;2.60;;
31438;SDS011;18062;48.872;9.220;2024-03-06T00:05:02;5.17;;;2.87;;
31438;SDS011;18062;48.872;9.220;2024-03-06T00:07:29;4.77;;;2.80;;
31438;SDS011;18062;48.872;9.220;2024-03-06T00:09:55;4.93;;;2.50;;
31438;SDS011;18062;48.872;9.220;2024-03-06T00:12:21;3.63;;;2.87;;
31438;SDS011;18062;48.872;9.220;2024-03-06T00:14:47;2.83;;;2.37;;
31438;SDS011;18062;48.872;9.220;2024-03-06T00:17:13;4.87;;;2.80;;
31438;SDS011;18062;48.872;9.220;2024-03-06T00:19:40;4.83;;;2.73;;
31438;SDS011;18062;48.872;9.220;2024-03-06T00:22:06;3.70;;;2.67;;
31438;SDS011;18062;48.872;9.220;2024-03-06T00:24:32;4.10;;;2.47;;
31438;SDS011;18062;48.872;9.220;2024-03-06T00:26:58;5.07;;;2.77;;
31438;SDS011;18062;48.872;9.220;2024-03-06T00:29:24;2.00;;;1.80;;
31438;SDS011;18062;48.872;9.220;2024-03-06T00:31:50;5.03;;;2.30;;
31438;SDS011;18062;48.872;9.220;2024-03-06T00:34:16;3.63;;;2.10;;
31438;SDS011;18062;48.872;9.220;2024-03-06T00:36:42;2.40;;;2.20;;
31438;SDS011;18062;48.872;9.220;2024-03-06T00:39:09;5.00;;;2.77;;
31438;SDS011;18062;48.872;9.220;2024-03-06T00:41:35;5.53;;;3.23;;
31438;SDS011;18062;48.872;9.220;2024-03-06T00:44:01;4.17;;;2.90;;
31438;SDS011;18062;48.872;9.220;2024-03-06T00:46:27;3.77;;;2.90;;
31438;SDS011;18062;48.872;9.220;2024-03-06T00:48:53;3.93;;;2.97;;
31438;SDS011;18062;48.872;9.220;2024-03-06T00:51:19;2.57;;;2.37;;
31438;SDS011;18062;48.872;9.220;2024-03-06T00:53:45;3.30;;;2.10;;
31438;SDS011;18062;48.872;9.220;2024-03-06T00:56:11;3.17;;;2.47;;
31438;SDS011;18062;48.872;9.220;2024-03-06T00:58:37;4.07;;;3.27;;
31438;SDS011;18062;48.872;9.220;2024-03-06T01:01:03;2.93;;;2.63;;
31438;SDS011;18062;48.872;9.220;2024-03-06T01:03:30;2.97;;;2.50;;
31438;SDS011;18062;48.872;9.220;2024-03-06T01:05:56;2.93;;;2.63;;
31438;SDS011;18062;48.872;9.220;2024-03-06T01:08:22;3.90;;;2.67;;
31438;SDS011;18062;48.872;9.220;2024-03-06T01:10:50;3.23;;;2.53;;
31438;SDS011;18062;48.872;9.220;2024-03-06T01:13:16;3.23;;;2.77;;
31438;SDS011;18062;48.872;9.220;2024-03-06T01:15:42;3.23;;;2.93;;
31438;SDS011;18062;48.872;9.220;2024-03-06T01:18:08;5.70;;;2.67;;
31438;SDS011;18062;48.872;9.220;2024-03-06T01:20:34;3.93;;;2.97;;
31438;SDS011;18062;48.872;9.220;2024-03-06T01:23:01;3.97;;;2.87;;
31438;SDS011;18062;48.872;9.220;2024-03-06T01:25:27;3.13;;;2.57;;
31438;SDS011;18062;48.872;9.220;2024-03-06T01:27:54;3.00;;;2.63;;
31438;SDS011;18062;48.872;9.220;2024-03-06T01:30:20;2.90;;;2.47;;
31438;SDS011;18062;48.872;9.220;2024-03-06T01:32:46;2.63;;;2.40;;
31438;SDS011;18062;48.872;9.220;2024-03-06T01:35:12;4.33;;;2.30;;
31438;SDS011;18062;48.872;9.220;2024-03-06T01:37:38;2.90;;;2.63;;
31438;SDS011;18062;48.872;9.220;2024-03-06T01:40:04;6.90;;;2.70;;
31438;SDS011;18062;48.872;9.220;2024-03-06T01:42:30;3.30;;;2.57;;
31438;SDS011;18062;48.872;9.220;2024-03-06T01:44:56;4.43;;;2.73;;
31438;SDS011;18062;48.872;9.220;2024-03-06T01:47:22;4.27;;;3.03;;
31438;SDS011;18062;48.872;9.220;2024-03-06T01:49:48;2.63;;;2.23;;
31438;SDS011;18062;48.872;9.220;2024-03-06T01:52:15;3.30;;;2.63;;
31438;SDS011;18062;48.872;9.220;2024-03-06T01:54:42;3.57;;;2.77;;
31438;SDS011;18062;48.872;9.220;2024-03-06T01:57:10;4.07;;;2.87;;
31438;SDS011;18062;48.872;9.220;2024-03-06T01:59:39;3.13;;;2.50;;
31438;SDS011;18062;48.872;9.220;2024-03-06T02:02:06;2.63;;;2.43;;
31438;SDS011;18062;48.872;9.220;2024-03-06T02:04:33;3.50;;;2.50;;
31438;SDS011;18062;48.872;9.220;2024-03-06T02:07:00;5.13;;;2.53;;
31438;SDS011;18062;48.872;9.220;2024-03-06T02:09:27;1.93;;;1.73;;
31438;SDS011;18062;48.872;9.220;2024-03-06T02:11:53;3.27;;;2.27;;
31438;SDS011;18062;48.872;9.220;2024-03-06T02:14:19;3.27;;;2.20;;
31438;SDS011;18062;48.872;9.220;2024-03-06T02:16:45;3.20;;;2.60;;
31438;SDS011;18062;48.872;9.220;2024-03-06T02:19:11;4.43;;;2.70;;
31438;SDS011;18062;48.872;9.220;2024-03-06T02:21:37;3.77;;;2.50;;
31438;SDS011;18062;48.872;9.220;2024-03-06T02:24:06;3.67;;;2.33;;
31438;SDS011;18062;48.872;9.220;2024-03-06T02:26:36;3.47;;;2.30;;
31438;SDS011;18062;48.872;9.220;2024-03-06T02:29:02;3.83;;;2.33;;
31438;SDS011;18062;48.872;9.220;2024-03-06T02:31:30;3.43;;;2.53;;
31438;SDS011;18062;48.872;9.220;2024-03-06T02:33:57;3.83;;;3.03;;
31438;SDS011;18062;48.872;9.220;2024-03-06T02:36:24;3.03;;;2.67;;
31438;SDS011;18062;48.872;9.220;2024-03-06T02:38:50;2.97;;;2.37;;
31438;SDS011;18062;48.872;9.220;2024-03-06T02:41:16;3.97;;;2.77;;
31438;SDS011;18062;48.872;9.220;2024-03-06T02:43:42;3.27;;;2.53;;
31438;SDS011;18062;48.872;9.220;2024-03-06T02:46:08;4.63;;;2.80;;
31438;SDS011;18062;48.872;9.220;2024-03-06T02:48:34;3.43;;;3.00;;
31438;SDS011;18062;48.872;9.220;2024-03-06T02:51:01;4.13;;;2.90;;
31438;SDS011;18062;48.872;9.220;2024-03-06T02:53:27;3.90;;;2.80;;
31438;SDS011;18062;48.872;9.220;2024-03-06T02:55:53;4.43;;;3.00;;
31438;SDS011;18062;48.872;9.220;2024-03-06T02:58:19;3.93;;;2.90;;
31438;SDS011;18062;48.872;9.220;2024-03-06T03:00:45;4.30;;;3.03;;
31438;SDS011;18062;48.872;9.220;2024-03-06T03:03:11;4.33;;;2.93;;
31438;SDS011;18062;48.872;9.220;2024-03-06T03:05:37;3.77;;;2.87;;
31438;SDS011;18062;48.872;9.220;2024-03-06T03:08:04;6.20;;;3.20;;
31438;SDS011;18062;48.872;9.220;2024-03-06T03:10:30;4.23;;;3.13;;
31438;SDS011;18062;48.872;9.220;2024-03-06T03:12:56;3.47;;;2.77;;
31438;SDS011;18062;48.872;9.220;2024-03-06T03:15:22;5.40;;;3.20;;
31438;SDS011;18062;48.872;9.220;2024-03-06T03:17:48;6.20;;;2.70;;
31438;SDS011;18062;48.872;9.220;2024-03-06T03:20:14;3.33;;;2.40;;
31438;SDS011;18062;48.872;9.220;2024-03-06T03:22:42;3.87;;;2.63;;
31438;SDS011;18062;48.872;9.220;2024-03-06T03:25:09;2.80;;;2.37;;
31438;SDS011;18062;48.872;9.220;2024-03-06T03:27:36;3.67;;;2.80;;
31438;SDS011;18062;48.872;9.220;2024-03-06T03:30:03;4.00;;;3.03;;
31438;SDS011;18062;48.872;9.220;2024-03-06T03:32:30;2.37;;;2.13;;
31438;SDS011;18062;48.872;9.220;2024-03-06T03:34:56;3.10;;;2.40;;
31438;SDS011;18062;48.872;9.220;2024-03-06T03:37:22;8.30;;;2.70;;
31438;SDS011;18062;48.872;9.220;2024-03-06T03:39:48;5.87;;;2.80;;
31438;SDS011;18062;48.872;9.220;2024-03-06T03:42:14;7.13;;;2.93;;
31438;SDS011;18062;48.872;9.220;2024-03-06T03:44:40;3.23;;;2.70;;
31438;SDS011;18062;48.872;9.220;2024-03-06T03:47:07;4.57;;;3.07;;
31438;SDS011;18062;48.872;9.220;2024-03-06T03:49:33;3.17;;;2.87;;
31438;SDS011;18062;48.872;9.220;2024-03-06T03:51:59;2.67;;;2.43;;
31438;SDS011;18062;48.872;9.220;2024-03-06T03:54:25;4.43;;;2.73;;
31438;SDS011;18062;48.872;9.220;2024-03-06T03:56:54;4.60;;;2.80;;
31438;SDS011;18062;48.872;9.220;2024-03-06T03:59:20;3.37;;;2.57;;
31438;SDS011;18062;48.872;9.220;2024-03-06T04:01:46;3.20;;;2.60;;
31438;SDS011;18062;48.872;9.220;2024-03-06T04:04:12;3.93;;;2.87;;
31438;SDS011;18062;48.872;9.220;2024-03-06T04:06:38;3.30;;;2.93;;
31438;SDS011;18062;48.872;9.220;2024-03-06T04:09:04;4.57;;;3.20;;
31438;SDS011;18062;48.872;9.220;2024-03-06T04:11:30;3.57;;;2.67;;
31438;SDS011;18062;48.872;9.220;2024-03-06T04:14:01;5.07;;;3.30;;
31438;SDS011;18062;48.872;9.220;2024-03-06T04:16:27;5.87;;;3.33;;
31438;SDS011;18062;48.872;9.220;2024-03-06T04:18:53;5.57;;;3.60;;
31438;SDS011;18062;48.872;9.220;2024-03-06T04:21:19;4.27;;;3.50;;
31438;SDS011;18062;48.872;9.220;2024-03-06T04:23:45;5.00;;;3.10;;
31438;SDS011;18062;48.872;9.220;2024-03-06T04:26:13;3.17;;;2.80;;
31438;SDS011;18062;48.872;9.220;2024-03-06T04:28:39;5.73;;;3.40;;
31438;SDS011;18062;48.872;9.220;2024-03-06T04:31:05;5.73;;;3.13;;
31438;SDS011;18062;48.872;9.220;2024-03-06T04:33:31;3.53;;;3.00;;
31438;SDS011;18062;48.872;9.220;2024-03-06T04:35:57;3.17;;;2.80;;
31438;SDS011;18062;48.872;9.220;2024-03-06T04:38:23;3.10;;;2.53;;
31438;SDS011;18062;48.872;9.220;2024-03-06T04:40:49;5.13;;;3.00;;
31438;SDS011;18062;48.872;9.220;2024-03-06T04:43:15;5.53;;;3.27;;
31438;SDS011;18062;48.872;9.220;2024-03-06T04:45:41;4.40;;;3.30;;
31438;SDS011;18062;48.872;9.220;2024-03-06T04:48:07;4.57;;;3.33;;
31438;SDS011;18062;48.872;9.220;2024-03-06T04:50:33;3.67;;;2.93;;
31438;SDS011;18062;48.872;9.220;2024-03-06T04:52:59;4.33;;;3.30;;
31438;SDS011;18062;48.872;9.220;2024-03-06T04:55:25;7.33;;;3.40;;
31438;SDS011;18062;48.872;9.220;2024-03-06T04:57:51;4.07;;;3.07;;
31438;SDS011;18062;48.872;9.220;2024-03-06T05:00:18;5.70;;;3.90;;
31438;SDS011;18062;48.872;9.220;2024-03-06T05:02:44;6.20;;;3.17;;
31438;SDS011;18062;48.872;9.220;2024-03-06T05:05:11;3.93;;;3.03;;
31438;SDS011;18062;48.872;9.220;2024-03-06T05:07:37;7.17;;;3.57;;
31438;SDS011;18062;48.872;9.220;2024-03-06T05:10:03;4.97;;;3.10;;
31438;SDS011;18062;48.872;9.220;2024-03-06T05:12:29;5.53;;;3.27;;
31438;SDS011;18062;48.872;9.220;2024-03-06T05:14:55;4.17;;;2.87;;
31438;SDS011;18062;48.872;9.220;2024-03-06T05:17:21;5.07;;;3.00;;
31438;SDS011;18062;48.872;9.220;2024-03-06T05:19:48;5.57;;;3.47;;
31438;SDS011;18062;48.872;9.220;2024-03-06T05:22:15;5.37;;;3.17;;
31438;SDS011;18062;48.872;9.220;2024-03-06T05:24:41;4.43;;;3.17;;
31438;SDS011;18062;48.872;9.220;2024-03-06T05:27:08;4.40;;;3.00;;
31438;SDS011;18062;48.872;9.220;2024-03-06T05:29:41;6.00;;;3.53;;
31438;SDS011;18062;48.872;9.220;2024-03-06T05:32:07;4.97;;;2.80;;
31438;SDS011;18062;48.872;9.220;2024-03-06T05:34:34;5.70;;;2.80;;
31438;SDS011;18062;48.872;9.220;2024-03-06T05:37:00;6.70;;;3.27;;
31438;SDS011;18062;48.872;9.220;2024-03-06T05:39:26;4.87;;;3.17;;
31438;SDS011;18062;48.872;9.220;2024-03-06T05:41:55;3.93;;;2.83;;
31438;SDS011;18062;48.872;9.220;2024-03-06T05:44:21;9.70;;;3.77;;
31438;SDS011;18062;48.872;9.220;2024-03-06T05:46:47;6.50;;;3.60;;
31438;SDS011;18062;48.872;9.220;2024-03-06T05:49:13;6.23;;;3.37;;
31438;SDS011;18062;48.872;9.220;2024-03-06T05:51:39;4.20;;;3.17;;
31438;SDS011;18062;48.872;9.220;2024-03-06T05:54:05;4.47;;;3.27;;
31438;SDS011;18062;48.872;9.220;2024-03-06T05:56:33;6.83;;;3.37;;
31438;SDS011;18062;48.872;9.220;2024-03-06T05:58:59;5.33;;;3.37;;
31438;SDS011;18062;48.872;9.220;2024-03-06T06:01:29;5.30;;;3.63;;
31438;SDS011;18062;48.872;9.220;2024-03-06T06:03:55;7.30;;;3.37;;
31438;SDS011;18062;48.872;9.220;2024-03-06T06:06:21;4.83;;;3.43;;
31438;SDS011;18062;48.872;9.220;2024-03-06T06:08:48;5.27;;;3.30;;
31438;SDS011;18062;48.872;9.220;2024-03-06T06:11:14;4.67;;;3.53;;
31438;SDS011;18062;48.872;9.220;2024-03-06T06:13:40;5.70;;;3.60;;
31438;SDS011;18062;48.872;9.220;2024-03-06T06:16:06;5.40;;;3.40;;
31438;SDS011;18062;48.872;9.220;2024-03-06T06:18:32;4.67;;;3.10;;
31438;SDS011;18062;48.872;9.220;2024-03-06T06:20:58;4.77;;;3.27;;
31438;SDS011;18062;48.872;9.220;2024-03-06T06:23:24;8.13;;;3.17;;
31438;SDS011;18062;48.872;9.220;2024-03-06T06:25:51;4.27;;;3.40;;
31438;SDS011;18062;48.872;9.220;2024-03-06T06:28:17;4.43;;;3.43;;
31438;SDS011;18062;48.872;9.220;2024-03-06T06:30:43;4.43;;;3.20;;
31438;SDS011;18062;48.872;9.220;2024-03-06T06:33:09;5.33;;;3.57;;
31438;SDS011;18062;48.872;9.220;2024-03-06T06:35:35;4.23;;;2.97;;
31438;SDS011;18062;48.872;9.220;2024-03-06T06:38:01;4.10;;;3.33;;
31438;SDS011;18062;48.872;9.220;2024-03-06T06:40:28;6.70;;;3.40;;
31438;SDS011;18062;48.872;9.220;2024-03-06T06:42:54;3.63;;;2.87;;
31438;SDS011;18062;48.872;9.220;2024-03-06T06:45:20;3.53;;;2.70;;
31438;SDS011;18062;48.872;9.220;2024-03-06T06:47:50;4.30;;;3.07;;
31438;SDS011;18062;48.872;9.220;2024-03-06T06:50:17;6.27;;;2.97;;
31438;SDS011;18062;48.872;9.220;2024-03-06T06:52:43;4.30;;;3.10;;
31438;SDS011;18062;48.872;9.220;2024-03-06T06:55:09;6.67;;;3.10;;
31438;SDS011;18062;48.872;9.220;2024-03-06T06:57:36;4.80;;;3.23;;
31438;SDS011;18062;48.872;9.220;2024-03-06T07:00:02;3.93;;;2.70;;
31438;SDS011;18062;48.872;9.220;2024-03-06T07:02:36;7.07;;;3.60;;
31438;SDS011;18062;48.872;9.220;2024-03-06T07:05:02;3.47;;;2.97;;
31438;SDS011;18062;48.872;9.220;2024-03-06T07:07:29;5.43;;;3.30;;
31438;SDS011;18062;48.872;9.220;2024-03-06T07:09:55;4.33;;;3.60;;
31438;SDS011;18062;48.872;9.220;2024-03-06T07:12:21;5.53;;;2.80;;
31438;SDS011;18062;48.872;9.220;2024-03-06T07:14:47;5.60;;;2.80;;
31438;SDS011;18062;48.872;9.220;2024-03-06T07:17:13;3.27;;;2.73;;
31438;SDS011;18062;48.872;9.220;2024-03-06T07:19:39;4.53;;;2.93;;
31438;SDS011;18062;48.872;9.220;2024-03-06T07:22:05;6.10;;;3.37;;
31438;SDS011;18062;48.872;9.220;2024-03-06T07:24:31;5.23;;;3.33;;
31438;SDS011;18062;48.872;9.220;2024-03-06T07:26:57;6.57;;;3.70;;
31438;SDS011;18062;48.872;9.220;2024-03-06T07:29:23;5.47;;;3.13;;
31438;SDS011;18062;48.872;9.220;2024-03-06T07:31:50;6.13;;;3.23;;
31438;SDS011;18062;48.872;9.220;2024-03-06T07:34:16;5.60;;;3.90;;
31438;SDS011;18062;48.872;9.220;2024-03-06T07:36:42;7.10;;;3.43;;
31438;SDS011;18062;48.872;9.220;2024-03-06T07:39:11;3.50;;;3.13;;
31438;SDS011;18062;48.872;9.220;2024-03-06T07:41:37;5.90;;;3.90;;
31438;SDS011;18062;48.872;9.220;2024-03-06T07:44:03;8.93;;;3.30;;
31438;SDS011;18062;48.872;9.220;2024-03-06T07:46:29;4.33;;;3.50;;
31438;SDS011;18062;48.872;9.220;2024-03-06T07:48:55;5.47;;;3.40;;
31438;SDS011;18062;48.872;9.220;2024-03-06T07:51:21;5.17;;;3.53;;
31438;SDS011;18062;48.872;9.220;2024-03-06T07:53:47;6.30;;;3.60;;
31438;SDS011;18062;48.872;9.220;2024-03-06T07:56:15;5.40;;;3.90;;
31438;SDS011;18062;48.872;9.220;2024-03-06T07:58:42;8.00;;;4.10;;
31438;SDS011;18062;48.872;9.220;2024-03-06T08:01:08;5.20;;;3.60;;
31438;SDS011;18062;48.872;9.220;2024-03-06T08:03:34;4.17;;;3.17;;
31438;SDS011;18062;48.872;9.220;2024-03-06T08:06:00;5.00;;;3.47;;
31438;SDS011;18062;48.872;9.220;2024-03-06T08:08:27;4.57;;;3.23;;
31438;SDS011;18062;48.872;9.220;2024-03-06T08:10:56;5.13;;;3.60;;
31438;SDS011;18062;48.872;9.220;2024-03-06T08:13:22;4.33;;;3.33;;
31438;SDS011;18062;48.872;9.220;2024-03-06T08:15:48;3.90;;;3.20;;
31438;SDS011;18062;48.872;9.220;2024-03-06T08:18:14;5.23;;;3.63;;
31438;SDS011;18062;48.872;9.220;2024-03-06T08:20:40;4.73;;;3.57;;
31438;SDS011;18062;48.872;9.220;2024-03-06T08:23:07;6.27;;;3.77;;
31438;SDS011;18062;48.872;9.220;2024-03-06T08:25:35;4.23;;;3.80;;
31438;SDS011;18062;48.872;9.220;2024-03-06T08:28:01;5.97;;;3.87;;
31438;SDS011;18062;48.872;9.220;2024-03-06T08:30:28;6.77;;;3.80;;
31438;SDS011;18062;48.872;9.220;2024-03-06T08:32:57;5.27;;;3.60;;
31438;SDS011;18062;48.872;9.220;2024-03-06T08:35:23;7.70;;;3.67;;
31438;SDS011;18062;48.872;9.220;2024-03-06T08:37:50;4.73;;;3.20;;
31438;SDS011;18062;48.872;9.220;2024-03-06T08:40:17;4.40;;;3.67;;
31438;SDS011;18062;48.872;9.220;2024-03-06T08:42:43;4.77;;;3.67;;
31438;SDS011;18062;48.872;9.220;2024-03-06T08:45:10;4.90;;;3.60;;
31438;SDS011;18062;48.872;9.220;2024-03-06T08:47:36;6.07;;;3.27;;
31438;SDS011;18062;48.872;9.220;2024-03-06T08:50:02;6.20;;;3.43;;
31438;SDS011;18062;48.872;9.220;2024-03-06T08:52:29;6.53;;;3.70;;
31438;SDS011;18062;48.872;9.220;2024-03-06T08:54:57;6.27;;;4.03;;
31438;SDS011;18062;48.872;9.220;2024-03-06T08:57:23;4.63;;;3.53;;
31438;SDS011;18062;48.872;9.220;2024-03-06T08:59:53;3.73;;;3.03;;
31438;SDS011;18062;48.872;9.220;2024-03-06T09:02:19;4.50;;;3.60;;
31438;SDS011;18062;48.872;9.220;2024-03-06T09:04:45;7.93;;;4.27;;
31438;SDS011;18062;48.872;9.220;2024-03-06T09:07:12;4.90;;;3.73;;
31438;SDS011;18062;48.872;9.220;2024-03-06T09:09:38;6.37;;;3.87;;
31438;SDS011;18062;48.872;9.220;2024-03-06T09:12:05;6.50;;;3.20;;
31438;SDS011;18062;48.872;9.220;2024-03-06T09:14:34;5.70;;;3.10;;
31438;SDS011;18062;48.872;9.220;2024-03-06T09:17:00;6.23;;;3.57;;
31438;SDS011;18062;48.872;9.220;2024-03-06T09:19:26;5.53;;;3.87;;
31438;SDS011;18062;48.872;9.220;2024-03-06T09:21:53;5.50;;;3.73;;
31438;SDS011;18062;48.872;9.220;2024-03-06T09:24:20;4.07;;;3.50;;
31438;SDS011;18062;48.872;9.220;2024-03-06T09:26:47;8.10;;;4.23;;
31438;SDS011;18062;48.872;9.220;2024-03-06T09:29:13;5.27;;;3.80;;
31438;SDS011;18062;48.872;9.220;2024-03-06T09:31:39;6.20;;;3.80;;
31438;SDS011;18062;48.872;9.220;2024-03-06T09:34:05;5.27;;;4.13;;
31438;SDS011;18062;48.872;9.220;2024-03-06T09:36:31;5.23;;;4.03;;
31438;SDS011;18062;48.872;9.220;2024-03-06T09:38:58;6.90;;;4.50;;
31438;SDS011;18062;48.872;9.220;2024-03-06T09:41:24;5.23;;;4.50;;
31438;SDS011;18062;48.872;9.220;2024-03-06T09:43:50;6.17;;;4.60;;
31438;SDS011;18062;48.872;9.220;2024-03-06T09:46:17;6.20;;;4.50;;
31438;SDS011;18062;48.872;9.220;2024-03-06T09:48:45;7.60;;;4.53;;
31438;SDS011;18062;48.872;9.220;2024-03-06T09:51:12;5.53;;;4.23;;
31438;SDS011;18062;48.872;9.220;2024-03-06T09:53:39;8.57;;;4.80;;
31438;SDS011;18062;48.872;9.220;2024-03-06T09:56:05;6.00;;;4.10;;
31438;SDS011;18062;48.872;9.220;2024-03-06T09:58:36;7.73;;;4.50;;
31438;SDS011;18062;48.872;9.220;2024-03-06T10:01:03;5.93;;;4.67;;
31438;SDS011;18062;48.872;9.220;2024-03-06T10:03:32;7.70;;;5.27;;
31438;SDS011;18062;48.872;9.220;2024-03-06T10:05:59;6.83;;;5.17;;
31438;SDS011;18062;48.872;9.220;2024-03-06T10:08:25;8.07;;;5.70;;
31438;SDS011;18062;48.872;9.220;2024-03-06T10:10:51;7.70;;;5.77;;
31438;SDS011;18062;48.872;9.220;2024-03-06T10:13:18;8.00;;;5.53;;
31438;SDS011;18062;48.872;9.220;2024-03-06T10:16:03;8.87;;;6.57;;
31438;SDS011;18062;48.872;9.220;2024-03-06T10:18:29;8.20;;;6.07;;
31438;SDS011;18062;48.872;9.220;2024-03-06T10:20:56;7.50;;;5.93;;
31438;SDS011;18062;48.872;9.220;2024-03-06T10:23:22;7.10;;;5.70;;
31438;SDS011;18062;48.872;9.220;2024-03-06T10:25:49;8.53;;;6.40;;
31438;SDS011;18062;48.872;9.220;2024-03-06T10:28:18;8.97;;;6.87;;
31438;SDS011;18062;48.872;9.220;2024-03-06T10:30:45;9.47;;;7.27;;
31438;SDS011;18062;48.872;9.220;2024-03-06T10:33:11;7.27;;;5.27;;
31438;SDS011;18062;48.872;9.220;2024-03-06T10:35:39;7.53;;;6.00;;
31438;SDS011;18062;48.872;9.220;2024-03-06T10:38:06;7.73;;;6.17;;
31438;SDS011;18062;48.872;9.220;2024-03-06T10:40:36;10.93;;;6.10;;
31438;SDS011;18062;48.872;9.220;2024-03-06T10:43:03;9.57;;;6.40;;
31438;SDS011;18062;48.872;9.220;2024-03-06T10:47:58;9.27;;;6.63;;
31438;SDS011;18062;48.872;9.220;2024-03-06T10:50:25;10.13;;;7.53;;
31438;SDS011;18062;48.872;9.220;2024-03-06T10:52:53;11.90;;;7.13;;
31438;SDS011;18062;48.872;9.220;2024-03-06T10:55:22;11.77;;;7.77;;
31438;SDS011;18062;48.872;9.220;2024-03-06T10:57:52;12.97;;;7.10;;
31438;SDS011;18062;48.872;9.220;2024-03-06T11:00:18;11.73;;;7.17;;
31438;SDS011;18062;48.872;9.220;2024-03-06T11:02:47;9.77;;;7.37;;
31438;SDS011;18062;48.872;9.220;2024-03-06T11:05:14;10.93;;;7.47;;
31438;SDS011;18062;48.872;9.220;2024-03-06T11:07:40;13.80;;;8.10;;
31438;SDS011;18062;48.872;9.220;2024-03-06T11:10:07;11.43;;;7.87;;
31438;SDS011;18062;48.872;9.220;2024-03-06T11:12:34;14.03;;;7.87;;
31438;SDS011;18062;48.872;9.220;2024-03-06T11:15:08;12.10;;;8.23;;
31438;SDS011;18062;48.872;9.220;2024-03-06T11:17:34;10.73;;;7.20;;
31438;SDS011;18062;48.872;9.220;2024-03-06T11:28:02;12.47;;;7.77;;
31438;SDS011;18062;48.872;9.220;2024-03-06T11:30:28;12.03;;;7.67;;
31438;SDS011;18062;48.872;9.220;2024-03-06T11:33:00;12.67;;;8.00;;
31438;SDS011;18062;48.872;9.220;2024-03-06T11:35:29;13.17;;;8.83;;
31438;SDS011;18062;48.872;9.220;2024-03-06T11:37:55;15.30;;;8.30;;
31438;SDS011;18062;48.872;9.220;2024-03-06T11:40:24;11.53;;;8.17;;
31438;SDS011;18062;48.872;9.220;2024-03-06T11:42:50;11.97;;;7.70;;
31438;SDS011;18062;48.872;9.220;2024-03-06T11:45:20;14.27;;;8.67;;
31438;SDS011;18062;48.872;9.220;2024-03-06T11:48:02;13.57;;;8.33;;
31438;SDS011;18062;48.872;9.220;2024-03-06T11:50:29;12.80;;;7.07;;
31438;SDS011;18062;48.872;9.220;2024-03-06T11:52:57;11.13;;;8.13;;
31438;SDS011;18062;48.872;9.220;2024-03-06T11:55:23;11.70;;;8.10;;
31438;SDS011;18062;48.872;9.220;2024-03-06T11:57:52;11.20;;;6.97;;
31438;SDS011;18062;48.872;9.220;2024-03-06T12:00:24;10.63;;;7.83;;
31438;SDS011;18062;48.872;9.220;2024-03-06T12:02:50;11.10;;;7.87;;
31438;SDS011;18062;48.872;9.220;2024-03-06T12:05:17;10.53;;;8.10;;
31438;SDS011;18062;48.872;9.220;2024-03-06T12:07:49;13.50;;;9.00;;
31438;SDS011;18062;48.872;9.220;2024-03-06T12:10:16;10.73;;;7.23;;
31438;SDS011;18062;48.872;9.220;2024-03-06T12:12:42;10.20;;;7.67;;
31438;SDS011;18062;48.872;9.220;2024-03-06T12:15:09;10.07;;;7.17;;
31438;SDS011;18062;48.872;9.220;2024-03-06T12:17:46;10.47;;;7.80;;
31438;SDS011;18062;48.872;9.220;2024-03-06T12:20:13;12.20;;;7.70;;
31438;SDS011;18062;48.872;9.220;2024-03-06T12:25:17;10.90;;;7.63;;
31438;SDS011;18062;48.872;9.220;2024-03-06T12:27:45;10.20;;;7.73;;
31438;SDS011;18062;48.872;9.220;2024-03-06T12:30:11;11.63;;;7.67;;
31438;SDS011;18062;48.872;9.220;2024-03-06T12:32:38;10.40;;;7.23;;
31438;SDS011;18062;48.872;9.220;2024-03-06T12:35:04;11.47;;;7.87;;
31438;SDS011;18062;48.872;9.220;2024-03-06T12:37:31;14.50;;;8.30;;
31438;SDS011;18062;48.872;9.220;2024-03-06T12:39:57;12.43;;;7.43;;
31438;SDS011;18062;48.872;9.220;2024-03-06T12:42:23;11.50;;;8.13;;
31438;SDS011;18062;48.872;9.220;2024-03-06T12:44:49;14.13;;;9.30;;
31438;SDS011;18062;48.872;9.220;2024-03-06T12:47:15;12.90;;;8.53;;
31438;SDS011;18062;48.872;9.220;2024-03-06T12:49:41;12.00;;;8.23;;
31438;SDS011;18062;48.872;9.220;2024-03-06T12:52:07;14.33;;;9.10;;
31438;SDS011;18062;48.872;9.220;2024-03-06T12:54:34;13.00;;;9.30;;
31438;SDS011;18062;48.872;9.220;2024-03-06T12:57:00;14.90;;;9.43;;
31438;SDS011;18062;48.872;9.220;2024-03-06T12:59:26;16.30;;;9.40;;
31438;SDS011;18062;48.872;9.220;2024-03-06T13:01:52;13.47;;;9.60;;
31438;SDS011;18062;48.872;9.220;2024-03-06T13:04:19;14.63;;;9.90;;
31438;SDS011;18062;48.872;9.220;2024-03-06T13:06:45;15.50;;;9.53;;
31438;SDS011;18062;48.872;9.220;2024-03-06T13:09:11;13.93;;;10.30;;
31438;SDS011;18062;48.872;9.220;2024-03-06T13:11:37;16.50;;;11.23;;
31438;SDS011;18062;48.872;9.220;2024-03-06T13:14:03;16.67;;;11.20;;
31438;SDS011;18062;48.872;9.220;2024-03-06T13:16:29;16.73;;;11.33;;
31438;SDS011;18062;48.872;9.220;2024-03-06T13:18:55;16.37;;;11.63;;
31438;SDS011;18062;48.872;9.220;2024-03-06T13:21:22;17.07;;;12.27;;
31438;SDS011;18062;48.872;9.220;2024-03-06T13:23:48;20.37;;;12.20;;
31438;SDS011;18062;48.872;9.220;2024-03-06T13:26:14;17.17;;;11.97;;
31438;SDS011;18062;48.872;9.220;2024-03-06T13:28:40;13.57;;;10.53;;
31438;SDS011;18062;48.872;9.220;2024-03-06T13:31:07;15.43;;;11.03;;
31438;SDS011;18062;48.872;9.220;2024-03-06T13:33:33;15.40;;;10.87;;
31438;SDS011;18062;48.872;9.220;2024-03-06T13:35:59;15.57;;;11.20;;
31438;SDS011;18062;48.872;9.220;2024-03-06T13:38:25;16.27;;;11.40;;
31438;SDS011;18062;48.872;9.220;2024-03-06T13:40:51;15.27;;;10.67;;
31438;SDS011;18062;48.872;9.220;2024-03-06T13:43:17;14.60;;;11.07;;
31438;SDS011;18062;48.872;9.220;2024-03-06T13:45:51;16.77;;;11.37;;
31438;SDS011;18062;48.872;9.220;2024-03-06T13:48:17;17.43;;;11.40;;
31438;SDS011;18062;48.872;9.220;2024-03-06T13:50:43;20.40;;;11.30;;
31438;SDS011;18062;48.872;9.220;2024-03-06T13:53:10;18.23;;;11.80;;
31438;SDS011;18062;48.872;9.220;2024-03-06T13:55:36;19.83;;;11.63;;
31438;SDS011;18062;48.872;9.220;2024-03-06T13:58:03;16.37;;;11.00;;
31438;SDS011;18062;48.872;9.220;2024-03-06T14:00:29;17.87;;;11.00;;
31438;SDS011;18062;48.872;9.220;2024-03-06T14:02:55;14.00;;;10.10;;
31438;SDS011;18062;48.872;9.220;2024-03-06T14:05:22;17.17;;;10.40;;
31438;SDS011;18062;48.872;9.220;2024-03-06T14:07:52;15.57;;;10.97;;
31438;SDS011;18062;48.872;9.220;2024-03-06T14:10:18;16.13;;;11.27;;
31438;SDS011;18062;48.872;9.220;2024-03-06T14:12:46;16.03;;;9.97;;
31438;SDS011;18062;48.872;9.220;2024-03-06T14:15:12;16.70;;;11.27;;
31438;SDS011;18062;48.872;9.220;2024-03-06T14:17:40;16.50;;;11.70;;
31438;SDS011;18062;48.872;9.220;2024-03-06T14:20:06;17.53;;;11.20;;
31438;SDS011;18062;48.872;9.220;2024-03-06T14:22:33;18.10;;;11.53;;
31438;SDS011;18062;48.872;9.220;2024-03-06T14:25:00;17.87;;;11.77;;
31438;SDS011;18062;48.872;9.220;2024-03-06T14:27:26;15.73;;;10.50;;
31438;SDS011;18062;48.872;9.220;2024-03-06T14:29:52;16.83;;;11.30;;
31438;SDS011;18062;48.872;9.220;2024-03-06T14:32:19;17.43;;;11.40;;
31438;SDS011;18062;48.872;9.220;2024-03-06T14:34:45;17.43;;;10.93;;
31438;SDS011;18062;48.872;9.220;2024-03-06T14:37:12;17.63;;;11.10;;
31438;SDS011;18062;48.872;9.220;2024-03-06T14:39:38;14.20;;;10.00;;
31438;SDS011;18062;48.872;9.220;2024-03-06T14:42:05;18.47;;;10.60;;
31438;SDS011;18062;48.872;9.220;2024-03-06T14:44:31;17.87;;;11.73;;
31438;SDS011;18062;48.872;9.220;2024-03-06T14:46:57;15.97;;;10.80;;
31438;SDS011;18062;48.872;9.220;2024-03-06T14:49:23;15.90;;;10.07;;
31438;SDS011;18062;48.872;9.220;2024-03-06T14:51:50;13.67;;;9.90;;